»·PEaware :: QXE2256 KIDA-KBOI

QXE2256 :: KIDA-KBOI

FLIGHT INFORMATION

Flight Status: Arrived
Operator:
Horizon Air
More flights by this operator :: More flights under this callsign
Pilot: Matthew M. (8235)
Aircraft: DEHAVILLAND DASH 8 400
(DH8D)
More flights by this aircraft type
Origin: KIDA Idaho Falls Regl
United States
Destination: KBOI Boise Air Terminal/Gowen
United States
More flights between these airports :: More routes between these airports
Route: IDA REAPS KOURT4
File this flight plan on PilotEdge
Remarks:
Altitude:
(Current/Filed)
20,000ft
Speed:
(Current/Filed)
326kts
Departed: 26-Jul-22 09:48 AM
Arrived: 26-Jul-22 10:28 AM
Distance/Time
Traveled:
181nm/0:40
Distance/Time
To Go:
Arrived

Flight Plot

Page will automatically refresh every two minutes.

Flight plan parsing failed; only flown route is shown


Map Options




Map Legend


Flown Route
Filed Route
Departure Airport
Arrival Airport
Navaid (VOR, NDB)
Fix

Horizontal Profiles

Position Reports

Time Latitude Longitude Heading Altitude Ground
Speed
26-Jul-22 09:31 43.515083 -112.068603 127 4738ft 0kts
26-Jul-22 09:32 43.515083 -112.068603 127 4738ft 0kts
26-Jul-22 09:33 43.515083 -112.068603 127 4738ft 0kts
26-Jul-22 09:34 43.515083 -112.068603 127 4738ft 0kts
26-Jul-22 09:35 43.515083 -112.068603 127 4738ft 0kts
26-Jul-22 09:36 43.515083 -112.068603 127 4738ft 0kts
26-Jul-22 09:37 43.515083 -112.068603 127 4738ft 0kts
26-Jul-22 09:38 43.515083 -112.068603 127 4738ft 0kts
26-Jul-22 09:39 43.515083 -112.068603 127 4738ft 0kts
26-Jul-22 09:40 43.515083 -112.068603 127 4738ft 0kts
26-Jul-22 09:41 43.515083 -112.068603 127 4738ft 0kts
26-Jul-22 09:42 43.515083 -112.068603 127 4738ft 0kts
26-Jul-22 09:43 43.515083 -112.068603 127 4738ft 0kts
26-Jul-22 09:44 43.515301 -112.069073 92 4738ft 3kts
26-Jul-22 09:45 43.515890 -112.068714 24 4738ft 4kts
26-Jul-22 09:46 43.518189 -112.066436 39 4738ft 22kts
26-Jul-22 09:47 43.521379 -112.063462 306 4735ft 4kts
26-Jul-22 09:48 43.519933 -112.066514 218 4738ft 64kts
26-Jul-22 09:49 43.496406 -112.109618 270 5595ft 185kts
26-Jul-22 09:49 43.495599 -112.169166 263 7125ft 190kts
26-Jul-22 09:51 43.482411 -112.260718 257 8645ft 229kts
26-Jul-22 09:52 43.467394 -112.351936 257 9920ft 258kts
26-Jul-22 09:53 43.450706 -112.451761 257 11162ft 276kts
26-Jul-22 09:54 43.433158 -112.556289 257 12376ft 284kts
26-Jul-22 09:54 43.418224 -112.645089 258 13376ft 286kts
26-Jul-22 09:55 43.399974 -112.752714 257 14393ft 291kts
26-Jul-22 09:57 43.378272 -112.879803 258 15537ft 294kts
26-Jul-22 09:58 43.359411 -112.989548 258 16485ft 297kts
26-Jul-22 09:58 43.343195 -113.083729 258 17025ft 310kts
26-Jul-22 09:59 43.322694 -113.201474 258 17641ft 322kts
26-Jul-22 10:00 43.301470 -113.322666 258 18248ft 328kts
26-Jul-22 10:01 43.279938 -113.444782 259 18849ft 331kts
26-Jul-22 10:03 43.254463 -113.588232 259 19547ft 332kts
26-Jul-22 10:03 43.236217 -113.690303 258 19980ft 334kts
26-Jul-22 10:04 43.213821 -113.814753 258 19998ft 335kts
26-Jul-22 10:05 43.191425 -113.938339 258 19999ft 332kts
26-Jul-22 10:06 43.169140 -114.060603 258 20000ft 332kts
26-Jul-22 10:07 43.180352 -114.181540 286 20003ft 323kts
26-Jul-22 10:08 43.203651 -114.300420 286 20000ft 323kts
26-Jul-22 10:09 43.226595 -114.419004 286 19994ft 323kts
26-Jul-22 10:10 43.249532 -114.538388 286 19999ft 324kts
26-Jul-22 10:11 43.272356 -114.657888 285 20000ft 324kts
26-Jul-22 10:12 43.295198 -114.778294 285 19999ft 326kts
26-Jul-22 10:13 43.317932 -114.898729 285 19999ft 326kts
26-Jul-22 10:14 43.341091 -115.022040 285 19058ft 353kts
26-Jul-22 10:15 43.365118 -115.151321 285 17316ft 322kts
26-Jul-22 10:16 43.385242 -115.261167 285 15801ft 273kts
26-Jul-22 10:17 43.403472 -115.360357 285 14509ft 287kts
26-Jul-22 10:18 43.423332 -115.469303 283 13120ft 297kts
26-Jul-22 10:19 43.428734 -115.588350 274 11479ft 323kts
26-Jul-22 10:20 43.434579 -115.704855 274 9968ft 295kts
26-Jul-22 10:21 43.440521 -115.815823 274 8542ft 286kts
26-Jul-22 10:22 43.455354 -115.913232 295 7476ft 250kts
26-Jul-22 10:23 43.487075 -115.997105 296 6075ft 244kts
26-Jul-22 10:24 43.514932 -116.075994 295 4864ft 199kts
26-Jul-22 10:25 43.535221 -116.134518 294 3931ft 144kts
26-Jul-22 10:26 43.551798 -116.182980 294 3185ft 138kts
26-Jul-22 10:27 43.564095 -116.219001 295 2849ft 36kts
26-Jul-22 10:28 43.568073 -116.224412 26 2849ft 12kts

Navigation Log

Ident Type
Flight plan parsing failed, navigation log unavailable